Time;durP1;ratioP1;P1;durP2;ratioP2;P2;SDS_P1;SDS_P2;PMS_P1;PMS_P2;Temp;Humidity;BMP_temperature;BMP_pressure;BME280_temperature;BME280_humidity;BME280_pressure;Samples;Min_cycle;Max_cycle;Signal;HPM_P1;HPM_P2
2023/08/12 00:00:48;;;;;;;0.00;0.00;;;;;;;20.35;100.00;96846.72;5019570;28;20048;-80
2023/08/12 00:03:34;;;;;;;0.10;0.10;;;;;;;20.52;100.00;96846.94;5022068;28;20490;-82
2023/08/12 00:06:20;;;;;;;0.00;0.00;;;;;;;20.66;100.00;96846.94;5003282;28;20044;-79
2023/08/12 00:09:06;;;;;;;0.10;0.10;;;;;;;20.71;100.00;96834.06;5019390;28;20099;-80
2023/08/12 00:11:52;;;;;;;0.00;0.00;;;;;;;20.73;100.00;96837.28;5016325;28;20071;-80
2023/08/12 00:14:38;;;;;;;0.00;0.00;;;;;;;20.71;100.00;96825.91;5021582;28;20076;-82
2023/08/12 00:17:24;;;;;;;0.00;0.00;;;;;;;20.69;100.00;96838.97;5022059;28;20603;-81
2023/08/12 00:20:12;;;;;;;0.10;0.10;;;;;;;20.65;100.00;96821.69;5023013;28;20037;-81
2023/08/12 00:22:57;;;;;;;0.00;0.00;;;;;;;20.63;100.00;96821.19;5020966;28;20033;-81
2023/08/12 00:25:43;;;;;;;0.10;0.10;;;;;;;20.64;100.00;96814.63;5020107;28;20033;-82
2023/08/12 00:28:29;;;;;;;0.00;0.00;;;;;;;20.65;100.00;96821.69;5021558;28;20049;-83
2023/08/12 00:31:15;;;;;;;0.00;0.00;;;;;;;20.61;100.00;96812.50;5026009;28;20057;-82
2023/08/12 00:34:01;;;;;;;0.00;0.00;;;;;;;20.54;100.00;96814.81;5017712;28;20037;-80
2023/08/12 00:36:47;;;;;;;0.00;0.00;;;;;;;20.44;100.00;96802.25;5039642;28;20808;-81
2023/08/12 00:39:32;;;;;;;0.10;0.10;;;;;;;20.38;100.00;96814.31;5022074;28;20524;-82
2023/08/12 00:42:18;;;;;;;0.10;0.10;;;;;;;20.36;100.00;96802.13;5021570;28;20071;-82
2023/08/12 00:45:14;;;;;;;0.00;0.00;;;;;;;20.34;100.00;96807.06;5013692;28;20078;-81
2023/08/12 00:48:00;;;;;;;0.00;0.00;;;;;;;20.26;100.00;96812.09;4992637;28;20047;-80
2023/08/12 00:50:46;;;;;;;0.00;0.00;;;;;;;20.14;100.00;96809.06;5007267;28;20041;-79
2023/08/12 00:53:32;;;;;;;0.10;0.00;;;;;;;20.05;100.00;96816.31;5015270;28;20186;-81
2023/08/12 00:56:18;;;;;;;0.10;0.10;;;;;;;20.13;100.00;96812.09;5008857;28;20076;-79
2023/08/12 00:59:07;;;;;;;0.00;0.00;;;;;;;20.17;100.00;96807.69;5020802;28;20541;-80
2023/08/12 01:01:53;;;;;;;0.10;0.10;;;;;;;20.14;100.00;96814.50;5022040;28;20048;-78
2023/08/12 01:04:40;;;;;;;0.00;0.00;;;;;;;20.09;100.00;96811.91;5011228;28;20076;-81
2023/08/12 01:07:26;;;;;;;0.00;0.00;;;;;;;19.89;100.00;96804.13;5021837;28;20056;-80
2023/08/12 01:10:15;;;;;;;0.00;0.00;;;;;;;19.95;100.00;96798.31;5023210;28;20041;-81
2023/08/12 01:13:26;;;;;;;0.00;0.00;;;;;;;19.96;100.00;96808.06;5019862;28;20044;-82
2023/08/12 01:16:15;;;;;;;0.00;0.00;;;;;;;19.95;100.00;96805.66;5012351;28;20046;-81
2023/08/12 01:19:04;;;;;;;0.00;0.00;;;;;;;19.90;100.00;96808.44;5022348;28;20044;-82
2023/08/12 01:21:53;;;;;;;0.03;0.03;;;;;;;19.81;100.00;96793.94;4998940;28;20051;-82
2023/08/12 01:24:44;;;;;;;0.00;0.00;;;;;;;19.67;100.00;96810.22;5020430;28;20033;-82
2023/08/12 01:27:30;;;;;;;;;;;;;;;19.64;100.00;96814.34;5014385;28;20038;-81
2023/08/12 01:30:18;;;;;;;0.05;0.05;;;;;;;19.73;100.00;96793.53;5012474;28;20425;-81
2023/08/12 01:33:16;;;;;;;0.00;0.00;;;;;;;19.56;100.00;96782.41;5024881;28;20037;-83
2023/08/12 01:36:16;;;;;;;0.10;0.10;;;;;;;19.37;100.00;96784.34;5020551;28;20048;-83
2023/08/12 01:39:04;;;;;;;0.00;0.00;;;;;;;19.33;100.00;96778.72;5025486;28;20037;-81
2023/08/12 01:41:51;;;;;;;0.00;0.00;;;;;;;19.50;100.00;96778.19;5024459;28;20648;-84
2023/08/12 01:44:37;;;;;;;0.00;0.00;;;;;;;19.50;100.00;96770.03;5011552;28;20845;-84
2023/08/12 01:47:23;;;;;;;0.00;0.00;;;;;;;19.57;100.00;96773.19;5011571;28;20116;-83
2023/08/12 01:50:09;;;;;;;0.00;0.00;;;;;;;19.51;100.00;96776.25;5026843;28;20040;-83
2023/08/12 01:52:55;;;;;;;0.00;0.00;;;;;;;19.55;100.00;96769.94;5015380;28;20037;-85
2023/08/12 01:55:45;;;;;;;0.00;0.00;;;;;;;19.60;100.00;96775.31;5024411;28;20033;-82
2023/08/12 01:58:31;;;;;;;0.00;0.00;;;;;;;19.60;100.00;96794.31;5011535;28;20136;-84
2023/08/12 02:01:17;;;;;;;0.10;0.10;;;;;;;19.54;100.00;96798.19;5010151;28;20710;-83
2023/08/12 02:04:03;;;;;;;0.10;0.10;;;;;;;19.49;100.00;96803.69;5023494;28;20041;-83
2023/08/12 02:06:49;;;;;;;0.00;0.00;;;;;;;19.56;100.00;96804.13;5022071;28;20040;-83
2023/08/12 02:09:35;;;;;;;0.05;0.05;;;;;;;19.49;100.00;96798.28;5010855;28;20052;-82
2023/08/12 02:12:21;;;;;;;0.05;0.05;;;;;;;19.51;100.00;96804.22;5024193;28;20073;-84
2023/08/12 02:15:07;;;;;;;0.00;0.00;;;;;;;19.47;100.00;96805.91;5024735;28;20041;-84
2023/08/12 02:17:53;;;;;;;0.00;0.00;;;;;;;19.45;100.00;96808.09;5010261;28;20073;-81
2023/08/12 02:20:41;;;;;;;0.00;0.00;;;;;;;19.52;100.00;96808.53;5025428;28;20068;-83
2023/08/12 02:23:26;;;;;;;0.00;0.00;;;;;;;19.46;100.00;96818.69;5020056;28;20553;-83
2023/08/12 02:26:12;;;;;;;0.00;0.00;;;;;;;19.38;100.00;96813.13;5016528;28;20584;-81
2023/08/12 02:28:58;;;;;;;0.00;0.00;;;;;;;19.40;100.00;96822.56;5010522;28;20537;-85
2023/08/12 02:31:44;;;;;;;0.00;0.00;;;;;;;19.40;100.00;96821.78;5023151;28;20033;-85
2023/08/12 02:34:30;;;;;;;0.00;0.00;;;;;;;19.33;100.00;96824.84;5014687;28;20041;-84
2023/08/12 02:37:16;;;;;;;0.00;0.00;;;;;;;19.20;100.00;96806.59;5024338;28;20064;-84
2023/08/12 02:40:04;;;;;;;0.00;0.00;;;;;;;18.90;100.00;96786.97;5024760;28;20099;-83
2023/08/12 02:42:50;;;;;;;0.00;0.00;;;;;;;18.76;100.00;96771.75;5023340;28;20693;-83
2023/08/12 02:45:38;;;;;;;0.10;0.10;;;;;;;18.93;100.00;96780.19;5011998;28;20698;-84
2023/08/12 02:48:23;;;;;;;0.10;0.10;;;;;;;19.07;100.00;96767.50;5023343;28;20041;-81
2023/08/12 02:51:10;;;;;;;0.00;0.00;;;;;;;19.06;100.00;96786.75;5024068;28;20516;-82
2023/08/12 02:53:55;;;;;;;0.10;0.10;;;;;;;19.19;100.00;96778.69;5015000;28;20116;-81
2023/08/12 02:56:41;;;;;;;0.10;0.10;;;;;;;18.91;100.00;96796.75;5009421;28;20467;-80
2023/08/12 02:59:29;;;;;;;0.00;0.00;;;;;;;19.06;100.00;96782.13;5010848;28;20073;-80
2023/08/12 03:02:16;;;;;;;0.00;0.00;;;;;;;19.20;100.00;96772.16;5009809;28;20056;-82
2023/08/12 03:05:03;;;;;;;0.03;0.03;;;;;;;19.24;100.00;96771.56;5024999;28;20043;-82
2023/08/12 03:07:49;;;;;;;0.05;0.05;;;;;;;19.22;100.00;96761.00;5010281;28;20037;-82
2023/08/12 03:10:37;;;;;;;0.00;0.00;;;;;;;19.30;100.00;96752.22;5022689;28;20179;-80
2023/08/12 03:13:23;;;;;;;0.00;0.00;;;;;;;19.31;100.00;96753.00;5011270;28;20042;-81
2023/08/12 03:16:16;;;;;;;0.05;0.05;;;;;;;19.29;100.00;96756.00;5003843;28;20047;-84
2023/08/12 03:19:05;;;;;;;0.00;0.00;;;;;;;19.11;100.00;96757.66;5013804;28;20048;-83
2023/08/12 03:21:51;;;;;;;0.00;0.00;;;;;;;19.30;100.00;96754.09;5024311;28;20107;-83
2023/08/12 03:24:37;;;;;;;0.00;0.00;;;;;;;19.38;100.00;96756.94;5013514;28;20033;-82
2023/08/12 03:27:26;;;;;;;0.00;0.00;;;;;;;19.37;100.00;96751.81;5024596;28;20052;-83
2023/08/12 03:30:12;;;;;;;0.00;0.00;;;;;;;19.34;100.00;96738.84;5009606;28;20083;-81
2023/08/12 03:32:59;;;;;;;0.00;0.00;;;;;;;19.19;100.00;96739.91;4999200;28;20033;-83
2023/08/12 03:35:48;;;;;;;0.08;0.08;;;;;;;19.32;100.00;96743.75;5013900;28;20687;-82
2023/08/12 03:38:35;;;;;;;0.00;0.00;;;;;;;19.35;100.00;96741.25;5010358;28;20052;-82
2023/08/12 03:41:22;;;;;;;0.10;0.10;;;;;;;19.39;100.00;96750.41;5014406;28;20064;-81
2023/08/12 03:44:08;;;;;;;0.10;0.10;;;;;;;19.49;100.00;96744.00;5019453;28;20037;-80
2023/08/12 03:46:54;;;;;;;0.03;0.03;;;;;;;19.50;100.00;96740.19;5023939;28;20052;-81
2023/08/12 03:49:40;;;;;;;0.00;0.00;;;;;;;19.52;100.00;96731.72;5030340;28;20037;-83
2023/08/12 03:52:27;;;;;;;0.00;0.00;;;;;;;19.51;100.00;96730.94;5028548;28;20041;-82
2023/08/12 03:55:13;;;;;;;0.00;0.00;;;;;;;19.39;100.00;96738.75;5015797;28;20142;-83
2023/08/12 03:58:00;;;;;;;0.10;0.10;;;;;;;19.29;100.00;96733.50;5007969;28;20099;-84
2023/08/12 04:00:46;;;;;;;0.00;0.00;;;;;;;19.33;100.00;96723.66;5012765;28;20042;-82
2023/08/12 04:03:34;;;;;;;0.00;0.00;;;;;;;18.98;100.00;96717.72;5003462;28;20448;-82
2023/08/12 04:06:20;;;;;;;0.00;0.00;;;;;;;18.93;100.00;96715.91;5016395;28;20042;-84
2023/08/12 04:09:08;;;;;;;0.00;0.00;;;;;;;19.10;100.00;96711.84;5018539;28;20115;-82
2023/08/12 04:11:54;;;;;;;0.00;0.00;;;;;;;19.13;100.00;96706.63;5031570;28;20522;-83
2023/08/12 04:14:40;;;;;;;0.10;0.10;;;;;;;19.27;100.00;96700.44;5012767;28;20043;-84
2023/08/12 04:17:26;;;;;;;0.00;0.00;;;;;;;19.19;100.00;96702.72;5011174;28;20556;-82
2023/08/12 04:20:12;;;;;;;0.10;0.10;;;;;;;19.21;100.00;96697.81;5015138;28;20039;-84
2023/08/12 04:22:58;;;;;;;0.00;0.00;;;;;;;19.28;100.00;96697.41;5024262;28;20032;-83
2023/08/12 04:25:46;;;;;;;0.00;0.00;;;;;;;19.05;100.00;96696.44;5007566;28;20047;-83
2023/08/12 04:28:33;;;;;;;0.10;0.10;;;;;;;19.07;100.00;96691.56;5015135;28;20041;-81
2023/08/12 04:31:18;;;;;;;0.10;0.10;;;;;;;19.16;100.00;96689.78;5009359;28;20048;-81
2023/08/12 04:34:05;;;;;;;0.00;0.00;;;;;;;19.28;100.00;96693.91;5013826;28;20052;-81
2023/08/12 04:36:52;;;;;;;0.00;0.00;;;;;;;19.15;100.00;96690.06;5017303;28;20410;-82
2023/08/12 04:39:38;;;;;;;0.10;0.10;;;;;;;19.02;100.00;96688.94;5009469;28;20668;-82
2023/08/12 04:42:24;;;;;;;0.10;0.10;;;;;;;18.97;100.00;96680.06;5012238;28;20055;-82
2023/08/12 04:45:10;;;;;;;0.00;0.00;;;;;;;19.00;100.00;96672.16;5016359;28;20076;-82
2023/08/12 04:47:57;;;;;;;0.08;0.08;;;;;;;18.79;100.00;96679.81;5024079;28;20045;-82
2023/08/12 04:50:43;;;;;;;0.10;0.10;;;;;;;18.83;100.00;96680.84;5015628;28;20446;-83
2023/08/12 04:53:29;;;;;;;0.00;0.00;;;;;;;18.81;100.00;96674.09;5010526;28;20797;-81
2023/08/12 04:56:17;;;;;;;0.00;0.00;;;;;;;18.63;100.00;96671.06;5010159;28;20045;-83
2023/08/12 04:59:04;;;;;;;0.10;0.10;;;;;;;18.68;100.00;96675.66;5011050;28;20107;-83
2023/08/12 05:01:51;;;;;;;0.00;0.00;;;;;;;18.58;100.00;96671.16;5007807;28;20041;-82
2023/08/12 05:04:37;;;;;;;0.10;0.10;;;;;;;18.63;100.00;96665.66;5009692;28;20496;-81
2023/08/12 05:07:23;;;;;;;0.00;0.00;;;;;;;18.61;100.00;96659.75;5014041;28;20057;-82
2023/08/12 05:10:11;;;;;;;0.10;0.10;;;;;;;18.54;100.00;96659.31;5008085;28;20041;-83
2023/08/12 05:12:58;;;;;;;0.00;0.00;;;;;;;18.34;100.00;96671.22;5009472;28;20956;-82
2023/08/12 05:15:47;;;;;;;0.05;0.05;;;;;;;18.21;100.00;96668.44;5010300;28;20137;-82
2023/08/12 05:18:33;;;;;;;0.00;0.00;;;;;;;18.17;100.00;96664.72;5010924;28;20037;-81
2023/08/12 05:21:19;;;;;;;0.00;0.00;;;;;;;18.07;100.00;96671.09;4997816;28;20040;-81
2023/08/12 05:24:06;;;;;;;0.00;0.00;;;;;;;18.10;100.00;96679.41;5010875;28;20044;-82
2023/08/12 05:26:52;;;;;;;0.05;0.05;;;;;;;18.02;100.00;96680.06;5009360;28;20052;-81
2023/08/12 05:29:38;;;;;;;0.10;0.10;;;;;;;18.06;100.00;96683.81;5013020;28;20033;-81
2023/08/12 05:32:23;;;;;;;0.05;0.05;;;;;;;18.01;100.00;96683.06;5020398;28;20034;-81
2023/08/12 05:35:09;;;;;;;0.20;0.20;;;;;;;17.97;100.00;96687.44;5024100;28;20033;-81
2023/08/12 05:37:55;;;;;;;0.30;0.20;;;;;;;17.85;100.00;96685.16;5024335;28;20049;-80
2023/08/12 05:40:41;;;;;;;0.30;0.30;;;;;;;17.94;100.00;96694.25;5021712;28;20060;-81
2023/08/12 05:43:27;;;;;;;0.30;0.20;;;;;;;18.02;100.00;96687.38;5022473;28;20041;-81
2023/08/12 05:46:13;;;;;;;0.20;0.20;;;;;;;18.17;100.00;96684.47;5020914;28;20033;-81
2023/08/12 05:48:59;;;;;;;0.43;0.25;;;;;;;18.26;100.00;96692.75;5022521;28;20605;-80
2023/08/12 05:51:45;;;;;;;0.70;0.40;;;;;;;18.26;100.00;96695.47;5023428;28;20558;-79
2023/08/12 05:54:30;;;;;;;0.52;0.40;;;;;;;18.33;100.00;96695.91;5023694;28;20427;-79
2023/08/12 05:57:16;;;;;;;0.60;0.35;;;;;;;18.46;100.00;96705.22;5011300;28;20068;-81
2023/08/12 06:00:03;;;;;;;0.38;0.30;;;;;;;18.54;100.00;96702.66;5021491;28;20041;-80
2023/08/12 06:02:57;;;;;;;0.38;0.30;;;;;;;18.51;100.00;96691.59;5021526;28;20152;-80
2023/08/12 06:05:46;;;;;;;0.35;0.22;;;;;;;18.49;100.00;96696.50;5023502;28;20048;-80
2023/08/12 06:08:32;;;;;;;0.57;0.38;;;;;;;18.59;100.00;96699.84;5021287;28;20713;-80
2023/08/12 06:11:18;;;;;;;0.52;0.32;;;;;;;18.61;100.00;96700.38;5022404;28;20540;-80
2023/08/12 06:14:04;;;;;;;0.20;0.20;;;;;;;18.48;100.00;96706.53;5023270;28;20727;-80
2023/08/12 06:16:49;;;;;;;0.10;0.10;;;;;;;18.67;100.00;96703.03;5023127;28;20513;-80
2023/08/12 06:19:35;;;;;;;0.10;0.10;;;;;;;19.03;100.00;96701.38;5024541;28;20067;-80
2023/08/12 06:22:21;;;;;;;0.05;0.05;;;;;;;19.25;100.00;96699.94;5009837;28;20230;-81
2023/08/12 06:25:10;;;;;;;0.32;0.20;;;;;;;19.17;100.00;96706.84;5025369;28;20041;-80
2023/08/12 06:27:58;;;;;;;0.10;0.10;;;;;;;19.31;100.00;96718.53;5012824;28;20203;-80
2023/08/12 06:30:48;;;;;;;0.10;0.10;;;;;;;19.35;100.00;96716.03;5026298;28;20041;-81
2023/08/12 06:33:33;;;;;;;0.10;0.10;;;;;;;19.60;100.00;96736.50;5023105;28;20029;-81
2023/08/12 06:36:19;;;;;;;0.00;0.00;;;;;;;19.65;100.00;96720.94;5024549;28;20064;-81
2023/08/12 06:39:05;;;;;;;0.00;0.00;;;;;;;19.86;100.00;96726.78;5025444;28;20045;-79
2023/08/12 06:41:52;;;;;;;0.10;0.10;;;;;;;20.10;100.00;96723.06;5023209;28;20048;-82
2023/08/12 06:44:38;;;;;;;0.00;0.00;;;;;;;20.44;100.00;96725.34;5025168;28;20048;-81
2023/08/12 06:47:24;;;;;;;0.10;0.10;;;;;;;20.92;100.00;96730.25;5023125;28;20540;-81
2023/08/12 06:50:10;;;;;;;0.10;0.10;;;;;;;21.12;100.00;96730.56;5025341;28;20041;-81
2023/08/12 06:52:55;;;;;;;0.08;0.08;;;;;;;20.79;100.00;96731.94;5024902;28;20037;-80
2023/08/12 06:55:45;;;;;;;0.10;0.10;;;;;;;20.47;100.00;96736.44;5024007;28;20152;-79
2023/08/12 06:58:34;;;;;;;0.10;0.10;;;;;;;20.41;100.00;96725.94;5009975;28;20094;-80
2023/08/12 07:01:20;;;;;;;0.00;0.00;;;;;;;20.16;100.00;96741.69;5022864;28;20543;-80
2023/08/12 07:04:06;;;;;;;0.00;0.00;;;;;;;19.84;100.00;96722.75;5023654;28;20485;-81
2023/08/12 07:06:52;;;;;;;0.00;0.00;;;;;;;19.86;100.00;96715.13;5024303;28;20041;-80
2023/08/12 07:09:38;;;;;;;0.10;0.10;;;;;;;19.58;100.00;96715.09;5027353;28;20580;-81
2023/08/12 07:12:24;;;;;;;0.10;0.10;;;;;;;19.78;100.00;96708.50;5024975;28;20076;-82
2023/08/12 07:15:10;;;;;;;0.05;0.05;;;;;;;19.66;100.00;96700.03;5024549;28;20040;-82
2023/08/12 07:17:57;;;;;;;0.00;0.00;;;;;;;19.65;100.00;96693.00;5023447;28;20110;-81
2023/08/12 07:20:43;;;;;;;0.10;0.10;;;;;;;20.11;100.00;96687.44;5009445;28;20092;-79
2023/08/12 07:23:29;;;;;;;0.00;0.00;;;;;;;20.44;100.00;96674.53;5025014;28;20429;-80
2023/08/12 07:26:18;;;;;;;0.10;0.10;;;;;;;20.49;100.00;96682.56;5024334;28;20406;-82
2023/08/12 07:29:04;;;;;;;0.00;0.00;;;;;;;20.42;100.00;96673.19;5025074;28;20068;-81
2023/08/12 07:31:50;;;;;;;0.10;0.10;;;;;;;20.09;100.00;96681.53;5022824;28;20044;-80
2023/08/12 07:34:35;;;;;;;0.10;0.10;;;;;;;19.91;100.00;96688.66;5015154;28;20045;-80
2023/08/12 07:37:21;;;;;;;0.00;0.00;;;;;;;20.01;100.00;96690.38;5023555;28;20037;-81
2023/08/12 07:40:08;;;;;;;0.10;0.10;;;;;;;19.66;100.00;96692.69;5022010;28;20049;-81
2023/08/12 07:42:54;;;;;;;0.10;0.10;;;;;;;19.61;100.00;96698.22;5024057;28;20091;-81
2023/08/12 07:45:40;;;;;;;0.08;0.08;;;;;;;19.39;100.00;96696.16;5026262;28;20071;-80
2023/08/12 07:48:26;;;;;;;0.03;0.03;;;;;;;19.27;100.00;96701.25;5023019;28;20120;-80
2023/08/12 07:51:11;;;;;;;0.00;0.00;;;;;;;19.35;100.00;96697.03;5023973;28;20255;-80
2023/08/12 07:53:57;;;;;;;0.10;0.10;;;;;;;19.15;100.00;96679.22;5024827;28;20079;-81
2023/08/12 07:56:43;;;;;;;0.05;0.05;;;;;;;19.17;100.00;96666.97;5023060;28;20629;-82
2023/08/12 07:59:29;;;;;;;0.10;0.10;;;;;;;19.36;100.00;96679.66;5009880;28;20041;-81
2023/08/12 08:02:15;;;;;;;0.08;0.08;;;;;;;19.45;100.00;96672.44;5020918;28;20104;-83
2023/08/12 08:05:00;;;;;;;0.10;0.10;;;;;;;19.41;100.00;96666.00;5022470;28;20390;-81
2023/08/12 08:07:46;;;;;;;0.10;0.10;;;;;;;19.63;100.00;96652.59;5024359;28;20036;-82
2023/08/12 08:10:32;;;;;;;0.10;0.10;;;;;;;19.82;100.00;96655.19;5023614;28;20041;-81
2023/08/12 08:13:18;;;;;;;0.10;0.10;;;;;;;19.69;100.00;96645.94;5025249;28;20756;-80
2023/08/12 08:16:04;;;;;;;0.10;0.10;;;;;;;19.67;100.00;96655.47;5024007;28;20033;-82
2023/08/12 08:18:50;;;;;;;0.10;0.10;;;;;;;19.73;100.00;96657.81;5024316;28;20094;-81
2023/08/12 08:21:36;;;;;;;0.10;0.10;;;;;;;19.88;100.00;96645.03;5024104;28;20048;-81
2023/08/12 08:24:22;;;;;;;0.08;0.08;;;;;;;19.77;100.00;96666.16;5023970;28;20056;-81
2023/08/12 08:27:08;;;;;;;0.10;0.10;;;;;;;19.62;100.00;96664.56;5023478;28;20532;-80
2023/08/12 08:29:56;;;;;;;0.10;0.10;;;;;;;19.40;100.00;96676.06;5024176;28;20036;-82
2023/08/12 08:32:42;;;;;;;0.10;0.10;;;;;;;19.76;100.00;96680.81;5023694;28;20124;-81
2023/08/12 08:35:28;;;;;;;0.03;0.03;;;;;;;19.84;100.00;96692.88;5024453;28;20512;-82
2023/08/12 08:38:13;;;;;;;0.10;0.10;;;;;;;19.78;100.00;96700.34;5022843;28;20044;-82
2023/08/12 08:41:00;;;;;;;0.10;0.10;;;;;;;19.98;100.00;96688.25;4995362;28;20079;-81
2023/08/12 08:43:48;;;;;;;0.00;0.00;;;;;;;19.76;100.00;96688.97;4989263;28;20054;-82
2023/08/12 08:46:34;;;;;;;0.00;0.00;;;;;;;19.72;100.00;96704.25;5003022;28;20224;-80
2023/08/12 08:49:22;;;;;;;0.10;0.10;;;;;;;19.45;100.00;96694.97;5004689;28;20042;-82
2023/08/12 08:52:08;;;;;;;0.10;0.10;;;;;;;19.65;100.00;96698.41;5004122;28;20534;-80
2023/08/12 08:54:54;;;;;;;0.10;0.10;;;;;;;19.89;100.00;96671.06;5005376;28;20075;-82
2023/08/12 08:57:43;;;;;;;0.10;0.10;;;;;;;19.92;100.00;96675.88;5005618;28;20046;-81
2023/08/12 09:00:29;;;;;;;0.10;0.10;;;;;;;20.25;100.00;96665.69;5004417;28;20502;-81
2023/08/12 09:03:16;;;;;;;0.10;0.10;;;;;;;20.70;100.00;96669.31;5001295;28;20045;-81
2023/08/12 09:06:03;;;;;;;0.10;0.10;;;;;;;20.79;100.00;96666.66;5002147;28;20044;-80
2023/08/12 09:08:51;;;;;;;0.10;0.10;;;;;;;21.02;100.00;96671.00;5001597;28;20616;-81
2023/08/12 09:11:38;;;;;;;0.10;0.10;;;;;;;21.30;100.00;96659.97;5005988;28;20052;-82
2023/08/12 09:14:24;;;;;;;0.10;0.10;;;;;;;21.05;100.00;96675.00;5003889;28;20156;-81
2023/08/12 09:17:10;;;;;;;0.10;0.10;;;;;;;21.44;100.00;96671.56;5002542;28;20051;-81
2023/08/12 09:19:56;;;;;;;0.08;0.08;;;;;;;21.19;100.00;96666.75;5003370;28;20049;-82
2023/08/12 09:22:42;;;;;;;0.10;0.10;;;;;;;21.51;100.00;96671.94;4989966;28;20038;-81
2023/08/12 09:25:29;;;;;;;0.10;0.10;;;;;;;21.21;100.00;96668.06;5002418;28;20038;-84
2023/08/12 09:28:17;;;;;;;0.10;0.10;;;;;;;21.03;100.00;96669.06;5002508;28;20072;-83
2023/08/12 09:31:03;;;;;;;0.03;0.03;;;;;;;20.74;100.00;96675.72;5004049;28;20084;-81
2023/08/12 09:33:49;;;;;;;0.10;0.10;;;;;;;20.97;100.00;96664.88;5003736;28;20061;-81
2023/08/12 09:36:35;;;;;;;0.10;0.10;;;;;;;21.26;100.00;96657.03;5002115;28;20050;-82
2023/08/12 09:39:21;;;;;;;0.10;0.10;;;;;;;21.44;100.00;96659.88;5008541;28;20514;-82
2023/08/12 09:42:07;;;;;;;0.00;0.00;;;;;;;21.55;100.00;96653.03;5022723;28;20046;-80
2023/08/12 09:44:56;;;;;;;0.10;0.10;;;;;;;21.77;100.00;96654.88;5023701;28;20037;-81
2023/08/12 09:47:44;;;;;;;0.10;0.10;;;;;;;21.35;100.00;96662.56;5021317;28;20061;-82
2023/08/12 09:50:30;;;;;;;0.00;0.00;;;;;;;21.24;100.00;96666.63;5021969;28;20044;-82
2023/08/12 09:53:18;;;;;;;0.00;0.00;;;;;;;21.22;100.00;96671.56;5026292;28;20041;-82
2023/08/12 09:56:07;;;;;;;0.10;0.10;;;;;;;21.09;100.00;96682.25;5025103;28;20490;-82
2023/08/12 09:58:55;;;;;;;0.10;0.10;;;;;;;20.86;100.00;96692.31;5024634;28;20668;-82
2023/08/12 10:01:42;;;;;;;0.10;0.10;;;;;;;21.00;100.00;96694.16;5023544;28;20040;-82
2023/08/12 10:04:32;;;;;;;0.10;0.10;;;;;;;21.10;100.00;96696.66;5012179;28;20038;-79
2023/08/12 10:07:20;;;;;;;0.00;0.00;;;;;;;21.17;100.00;96677.97;5025720;28;20107;-81
2023/08/12 10:10:07;;;;;;;0.10;0.10;;;;;;;21.38;100.00;96684.50;5023782;28;20746;-81
2023/08/12 10:12:53;;;;;;;0.00;0.00;;;;;;;21.27;100.00;96677.72;5023613;28;20041;-80
2023/08/12 10:15:40;;;;;;;0.10;0.10;;;;;;;21.31;100.00;96677.88;5025910;28;20041;-79
2023/08/12 10:18:28;;;;;;;0.10;0.10;;;;;;;21.42;100.00;96674.59;5030260;28;20053;-81
2023/08/12 10:21:14;;;;;;;0.00;0.00;;;;;;;21.77;100.00;96665.78;5027576;28;20048;-80
2023/08/12 10:24:03;;;;;;;0.00;0.00;;;;;;;21.73;100.00;96671.06;5025195;28;20042;-81
2023/08/12 10:26:50;;;;;;;0.10;0.10;;;;;;;21.30;100.00;96655.31;5018060;28;20658;-82
2023/08/12 10:29:36;;;;;;;0.00;0.00;;;;;;;21.33;100.00;96665.59;5024100;28;20799;-80
2023/08/12 10:32:22;;;;;;;0.10;0.10;;;;;;;20.98;100.00;96680.06;5025367;28;20044;-82
2023/08/12 10:35:09;;;;;;;0.00;0.00;;;;;;;20.51;100.00;96676.81;5027818;28;20044;-82
2023/08/12 10:37:54;;;;;;;0.10;0.10;;;;;;;20.73;100.00;96673.34;5025968;28;20155;-80
2023/08/12 10:40:41;;;;;;;0.10;0.10;;;;;;;21.13;100.00;96656.00;5024521;28;20057;-81
2023/08/12 10:43:26;;;;;;;0.10;0.10;;;;;;;21.45;100.00;96656.03;5024270;28;20568;-80
2023/08/12 10:46:21;;;;;;;0.10;0.10;;;;;;;21.64;100.00;96662.88;5026439;28;20041;-82
2023/08/12 10:49:09;;;;;;;0.10;0.10;;;;;;;22.63;100.00;96648.78;5024168;28;20090;-82
2023/08/12 10:51:55;;;;;;;0.10;0.10;;;;;;;23.27;100.00;96648.91;5024423;28;20063;-82
2023/08/12 10:54:40;;;;;;;0.10;0.10;;;;;;;23.67;100.00;96641.25;5025075;28;20046;-82
2023/08/12 10:57:39;;;;;;;0.13;0.13;;;;;;;24.51;100.00;96636.72;5025037;28;20048;-80
2023/08/12 11:00:26;;;;;;;0.10;0.10;;;;;;;24.03;100.00;96629.78;5025351;28;20824;-82
2023/08/12 11:03:12;;;;;;;0.10;0.10;;;;;;;24.21;100.00;96629.69;5024799;28;20049;-81
2023/08/12 11:05:59;;;;;;;0.10;0.10;;;;;;;24.53;100.00;96639.94;5023275;28;20041;-83
2023/08/12 11:08:55;;;;;;;0.10;0.10;;;;;;;26.07;100.00;96629.59;5012150;28;20212;-81
2023/08/12 11:11:41;;;;;;;0.10;0.10;;;;;;;26.46;100.00;96636.31;5024320;28;20049;-81
2023/08/12 11:14:27;;;;;;;0.10;0.10;;;;;;;26.27;100.00;96619.63;5023514;28;20053;-82
2023/08/12 11:17:14;;;;;;;0.10;0.10;;;;;;;24.50;100.00;96629.66;5025525;28;20045;-82
2023/08/12 11:20:04;;;;;;;0.00;0.00;;;;;;;25.06;100.00;96632.06;5024265;28;20070;-82
2023/08/12 11:22:50;;;;;;;0.10;0.10;;;;;;;25.30;100.00;96623.94;5023413;28;20053;-81
2023/08/12 11:25:38;;;;;;;0.10;0.10;;;;;;;24.75;100.00;96630.59;5023266;28;20037;-80
2023/08/12 11:28:27;;;;;;;0.10;0.10;;;;;;;24.12;100.00;96622.34;5015437;28;20079;-81
2023/08/12 11:31:13;;;;;;;0.00;0.00;;;;;;;23.22;100.00;96611.66;5024028;28;20120;-83
2023/08/12 11:33:59;;;;;;;0.00;0.00;;;;;;;22.20;100.00;96623.13;5011022;28;20819;-83
2023/08/12 11:36:45;;;;;;;0.10;0.10;;;;;;;22.23;100.00;96618.94;5022165;28;20102;-83
2023/08/12 11:39:30;;;;;;;0.10;0.10;;;;;;;22.60;100.00;96622.97;5024474;28;20045;-81
2023/08/12 11:42:16;;;;;;;0.00;0.00;;;;;;;22.76;100.00;96626.00;5022633;28;20155;-82
2023/08/12 11:45:03;;;;;;;0.10;0.10;;;;;;;22.42;100.00;96624.13;5023583;28;20048;-80
2023/08/12 11:47:52;;;;;;;0.10;0.10;;;;;;;22.83;100.00;96604.50;5021970;28;20088;-82
2023/08/12 11:50:41;;;;;;;0.05;0.05;;;;;;;23.05;100.00;96601.59;5010945;28;20049;-82
2023/08/12 11:53:27;;;;;;;0.10;0.10;;;;;;;22.97;100.00;96598.91;5023028;28;20044;-82
2023/08/12 11:56:12;;;;;;;0.10;0.10;;;;;;;23.37;100.00;96588.50;5024554;28;20041;-81
2023/08/12 11:58:59;;;;;;;0.10;0.10;;;;;;;22.96;100.00;96610.94;5021983;28;20636;-82
2023/08/12 12:01:51;;;;;;;0.10;0.10;;;;;;;23.10;100.00;96595.16;5023754;28;20716;-81
2023/08/12 12:04:37;;;;;;;0.10;0.10;;;;;;;22.88;100.00;96582.56;4991654;28;20037;-82
2023/08/12 12:07:25;;;;;;;0.10;0.10;;;;;;;22.70;100.00;96597.28;5022409;28;20048;-82
2023/08/12 12:10:18;;;;;;;0.10;0.10;;;;;;;22.90;100.00;96602.13;5024328;28;21032;-81
2023/08/12 12:13:05;;;;;;;0.10;0.10;;;;;;;22.51;100.00;96603.09;5023383;28;20036;-80
2023/08/12 12:15:52;;;;;;;0.10;0.10;;;;;;;22.14;100.00;96615.41;5023461;28;20036;-86
2023/08/12 12:18:38;;;;;;;0.00;0.00;;;;;;;22.21;100.00;96621.19;5025383;28;20151;-86
2023/08/12 12:21:24;;;;;;;0.10;0.10;;;;;;;22.83;100.00;96612.69;5024477;28;20052;-84
2023/08/12 12:24:10;;;;;;;0.10;0.10;;;;;;;23.49;100.00;96617.81;5023870;28;20238;-85
2023/08/12 12:26:56;;;;;;;0.20;0.20;;;;;;;24.66;100.00;96625.16;5025900;28;20042;-86
2023/08/12 12:29:42;;;;;;;0.10;0.10;;;;;;;24.12;100.00;96633.28;5023237;28;20532;-83
2023/08/12 12:32:29;;;;;;;0.10;0.10;;;;;;;23.98;100.00;96643.66;5022001;28;20071;-85
2023/08/12 12:35:18;;;;;;;0.00;0.00;;;;;;;23.80;100.00;96634.72;5024994;28;20326;-84
2023/08/12 12:38:03;;;;;;;0.10;0.10;;;;;;;23.20;100.00;96640.41;5021638;28;20733;-81
2023/08/12 12:40:49;;;;;;;0.00;0.00;;;;;;;22.86;100.00;96644.00;5021412;28;20859;-84
2023/08/12 12:43:36;;;;;;;0.10;0.10;;;;;;;22.18;100.00;96643.66;5023561;28;20751;-83
2023/08/12 12:46:22;;;;;;;0.00;0.00;;;;;;;21.94;100.00;96647.59;5025095;28;20056;-83
2023/08/12 12:49:08;;;;;;;0.10;0.10;;;;;;;21.65;100.00;96639.97;5024431;28;20077;-83
2023/08/12 12:51:54;;;;;;;0.00;0.00;;;;;;;21.59;100.00;96646.66;5025141;28;20064;-82
2023/08/12 12:54:40;;;;;;;0.10;0.10;;;;;;;21.55;100.00;96642.13;5025057;28;20044;-83